x

West Erie - 16 Nm Nw Of Lorain, Oh (45005) Wave Buoy

10:50am - Sun 2nd Aug 2015 All times are CDT. -5 hours from GMT.

  • Sig Wave height 1.3ft
  • Swell Direction
  • Peak Period 3s
  • Average Period 3s
  • Wind
    13mph, 18mph gusts
  • Sea Temp 76°f
  • Air Temp 75°f
  • Sea Pressure 1011.8mb
  • West Erie - 16 Nm Nw Of Lorain, Oh
  • West Erie - 16 Nm Nw Of Lorain, Oh

More Historic Weather Station data

Upgrade to MSW Pro to gain access to the past 30 days of data for over 8000 Wavebouys and Weather Stations around the globe.

Join Pro

Comparision Forecast

View Surf forecast
   
Sun 08/02 10:50am 1.3ft 3s 3s 13 18 mph 1011.8mb 76f 75f
9:50am 1.6ft 3s 3s 13 16 mph 1011.9mb 76f 74f
8:50am 1.6ft 3s 3s 16 18 mph 1012.7mb 76f 73f
7:50am 1.6ft 3s 3s 16 18 mph 1012.5mb 76f 72f
6:50am 1.6ft 3s 3s 16 18 mph 1012.1mb 76f 72f
5:50am 1.6ft 3s 3s 16 18 mph 1012mb 76f 72f
4:50am 1.6ft 3s 3s 16 18 mph 1011.8mb 76f 73f
3:50am 1.3ft 3s 3s 16 18 mph 1011.9mb 76f 73f
2:50am 1.3ft 3s 3s 11 13 mph 1012.1mb 76f 75f
1:50am 1.6ft 3s 3s 13 16 mph 1012.2mb 76f 76f
12:50am 2ft 3s 3s 13 16 mph 1012.2mb 76f 76f
Sat 08/01 11:50pm 2ft 4s 3s 16 20 mph 1012.3mb 76f 76f
10:50pm 2ft 3s 3s 20 25 mph 1012mb 76f 77f
9:50pm 1.6ft 3s 3s 16 18 mph 1012.2mb 76f 78f
8:50pm 1.6ft 3s 3s 16 20 mph 1011.9mb 76f 78f
7:50pm 1.3ft 3s 3s 16 20 mph 1011.4mb 77f 79f
6:50pm 1.3ft 3s 3s 16 18 mph 1011.3mb 77f 79f
5:50pm 1.3ft 3s 3s 16 18 mph 1011.4mb 77f 79f
4:50pm 1.3ft 3s 3s 16 18 mph 1011.7mb 77f 79f
3:50pm 0.7ft  -  3s 13 16 mph 1012.1mb 77f 78f
2:50pm 1ft 3s 3s 13 16 mph 1012.5mb 77f 76f
1:50pm 0.7ft  -  3s 11 13 mph 1013.2mb 77f 75f
12:50pm 0.7ft  -  3s 11 13 mph 1013.4mb 77f 74f
11:50am 0.7ft  -  3s 9 11 mph 1013.8mb 77f 74f
10:50am 0.7ft  -  3s 7 9 mph 1014.1mb 77f 73f
9:50am 0.7ft  -  3s 4 7 mph 1013.7mb 76f 73f
8:50am 1ft 3s 3s 11 13 mph 1013.6mb 76f 72f
7:50am 1.3ft 3s 3s 11 13 mph 1013.2mb 76f 72f
6:50am 1.3ft 3s 3s 13 16 mph 1012.7mb 76f 72f
5:50am 1.6ft 3s 3s 16 18 mph 1012.3mb 76f 73f
4:50am 1.6ft 3s 3s 16 18 mph 1012mb 76f 73f
3:50am 1.6ft 3s 3s 13 16 mph 1012mb 76f 73f
2:50am 2ft 4s 3s 13
mph
1011.9mb 76f 74f
1:50am 2.5ft 4s 3s 18 20 mph 1011.8mb 76f 75f
12:50am 2.5ft 3s 3s 18 20 mph 1011.9mb 76f 76f
Fri 07/31 11:50pm 2.5ft 4s 3s 18 22 mph 1011.8mb 77f 77f
10:50pm 2.5ft 4s 3s 20 25 mph 1011.5mb 77f 77f
9:50pm 2.5ft 4s 3s 22 27 mph 1011.1mb 77f 79f
8:50pm 2ft 4s 3s 18 20 mph 1010.6mb 77f 79f
7:50pm 1.6ft 3s 3s 20 25 mph 1009.9mb 77f 80f
6:50pm 1.3ft 3s 3s 16 20 mph 1009.9mb 77f 81f
5:50pm 1ft 3s 3s 13 16 mph 1009.8mb 77f 81f
4:50pm 1ft 3s 3s 11 13 mph 1010.3mb 78f 81f
3:50pm 1ft 3s 3s 11
mph
1010.9mb 78f 80f
2:50pm 1ft 3s 3s 9 11 mph 1011.5mb 77f 80f
1:50pm 1ft 3s 3s 13 16 mph 1012.3mb 77f 80f
12:50pm 1.3ft 3s 3s 11 13 mph 1012.9mb 77f 78f
11:50am 1.3ft 3s 3s 16 18 mph 1013.6mb 77f 77f
10:50am 1.3ft 3s 3s 16
mph
1014.1mb 76f 75f
9:50am 1.6ft 3s 3s 13 16 mph 1014.2mb 76f 74f
8:50am 1.6ft 3s 3s 13 18 mph 1014.2mb 76f 73f
7:50am 2ft 3s 3s 16 18 mph 1014.2mb 76f 74f
6:50am 2ft 4s 3s 16 20 mph 1013.9mb 76f 75f
5:50am 2ft 4s 3s 18 22 mph 1013.6mb 76f 75f
4:50am 1.6ft 3s 3s 18 22 mph 1013.6mb 76f 75f
3:50am 1.6ft 3s 3s 16 18 mph 1013.8mb 76f 75f
2:50am 1.6ft 3s 3s 16 18 mph 1013.9mb 76f 76f
1:50am 1.6ft 3s 3s 16 18 mph 1014.2mb 77f 76f
12:50am 1.6ft 3s 3s 16 18 mph 1014.4mb 77f 77f
Thu 07/30 11:50pm 1.6ft 3s 3s 16 20 mph 1014.6mb 77f 78f
10:50pm 2ft 4s 3s 16 18 mph 1014.4mb 77f 78f
9:50pm 2ft 4s 3s 18 20 mph 1014.3mb 77f 79f
8:50pm 2ft 4s 3s 18 22 mph 1013.7mb 77f 79f
7:50pm 2ft 3s 3s 18 22 mph 1013.4mb 77f 80f
6:50pm 1.6ft 3s 3s 16 18 mph 1013.4mb 77f 80f
5:50pm 1.6ft 3s 3s 13 16 mph 1013.6mb 77f 80f
4:50pm 1.6ft 3s 3s 16 18 mph 1013.6mb 77f 80f
3:50pm 1.6ft 3s 3s 16 20 mph 1013.8mb 77f 79f
2:50pm 1.6ft 3s 3s 18 20 mph 1014.1mb 77f 79f
1:50pm 1.3ft 3s 3s 16 18 mph 1014.4mb 77f 79f
12:50pm 1.3ft 3s 3s 13 18 mph 1014.8mb 77f 77f
11:50am 1.3ft 3s 3s 16 18 mph 1015mb 77f 76f
10:50am 1.3ft 3s 3s 16 18 mph 1015mb 76f 75f
9:50am 1.6ft 3s 3s 16 18 mph 1014.8mb 76f 75f
8:50am 1.6ft 3s 3s 16 18 mph 1014.7mb 76f 75f
7:50am 1.6ft 3s 3s 13 16 mph 1014.5mb 76f 74f
6:50am 2ft 3s 3s 16 18 mph 1014.3mb 76f 74f
5:50am 2ft 3s 3s 16 18 mph 1013.9mb 76f 75f
4:50am 2ft 3s 3s 16 18 mph 1013.2mb 76f 76f
3:50am 2ft 3s 3s 16 20 mph 1012.9mb 77f 77f
2:50am 2ft 4s 3s 16 18 mph 1012.8mb 77f 77f
1:50am 2.5ft 4s 3s 18 20 mph 1012.9mb 77f 77f
12:50am 2.5ft 4s 3s 20 25 mph 1013.1mb 77f 78f
Wed 07/29 11:50pm 2ft 3s 3s 20 25 mph 1013mb 78f 78f
10:50pm 1ft 2s 3s 20 27 mph 1012.3mb 78f 79f
9:50pm 0.7ft  -  3s 13 16 mph 1012.2mb 78f 79f
8:50pm 0.7ft  -  3s 11 13 mph 1012mb 78f 78f
7:50pm 0.7ft  -  3s 9 11 mph 1011.9mb 78f 78f
6:50pm 0.7ft  -  3s 9
mph
1012.4mb 78f 78f
5:50pm 1ft 3s 3s 7
mph
1012.2mb 78f 76f